Terminal Aerodrome Forecast
Issued by NWS

Home | Current Version | Previous Version | Graphics & Text | Print | Product List | Glossary On
Versions: 1 2 3 4 5 6 7 8 9 10 11 12 13 14 15 16 17 18 19 20
000
FTUS43 KIWX 111137
TAFSBN
TAF
KSBN 111137Z 1112/1212 20009KT P6SM VCSH SCT025 OVC060
     FM120200 28005KT P6SM VCSH OVC025
     FM120500 32017G29KT 2SM -SHSN BLSN OVC015=

USA.gov is the U.S. government's official web portal to all federal, state and local government web resources and services.